TimeAKST,TemperatureF,Dew PointF,Humidity,Sea Level PressureIn,VisibilityMPH,Wind Direction,Wind SpeedMPH,Gust SpeedMPH,PrecipitationIn,Events,Conditions,WindDirDegrees,DateUTC
12:53 AM,16.0,-6.0,38,30.08,10.0,NW,16.1,26.5,N/A,,Unknown,310,2013-11-19 09:53:00
1:53 AM,16.0,-7.1,36,30.09,10.0,NNW,16.1,25.3,N/A,,Unknown,330,2013-11-19 10:53:00
2:53 AM,17.1,-7.1,34,30.08,10.0,North,15.0,26.5,N/A,,Unknown,350,2013-11-19 11:53:00
3:53 AM,17.1,-8.0,33,30.08,10.0,North,15.0,23.0,N/A,,Unknown,360,2013-11-19 12:53:00
4:53 AM,17.1,-8.0,33,30.07,10.0,North,16.1,21.9,N/A,,Unknown,350,2013-11-19 13:53:00
5:53 AM,17.1,-8.0,33,30.06,10.0,North,11.5,24.2,N/A,,Unknown,10,2013-11-19 14:53:00
6:53 AM,16.0,-8.0,34,30.06,10.0,North,12.7,19.6,N/A,,Unknown,360,2013-11-19 15:53:00
8:53 AM,16.0,-9.0,32,30.06,10.0,NNW,10.4,27.6,N/A,,Unknown,340,2013-11-19 17:53:00
9:53 AM,17.1,-9.0,31,30.06,10.0,NW,11.5,25.3,N/A,,Unknown,320,2013-11-19 18:53:00
10:53 AM,17.1,-8.0,33,30.06,10.0,North,11.5,19.6,N/A,,Unknown,360,2013-11-19 19:53:00
11:53 AM,18.0,-7.1,33,30.06,10.0,North,5.8,-,N/A,,Unknown,10,2013-11-19 20:53:00
12:53 PM,19.0,-9.0,29,30.05,10.0,North,13.8,19.6,N/A,,Unknown,360,2013-11-19 21:53:00
1:53 PM,19.0,-9.9,27,30.03,10.0,NNW,15.0,21.9,N/A,,Unknown,340,2013-11-19 22:53:00
2:53 PM,18.0,-11.0,27,30.02,10.0,NW,12.7,26.5,N/A,,Unknown,320,2013-11-19 23:53:00
3:53 PM,17.1,-9.9,30,30.01,10.0,North,9.2,-,N/A,,Unknown,360,2013-11-20 00:53:00
4:53 PM,16.0,-8.0,34,30.01,10.0,North,10.4,17.3,N/A,,Unknown,360,2013-11-20 01:53:00
5:53 PM,16.0,-7.1,36,30.01,10.0,North,12.7,-,N/A,,Unknown,350,2013-11-20 02:53:00
6:53 PM,15.1,-6.0,39,30.01,10.0,North,12.7,17.3,N/A,,Unknown,360,2013-11-20 03:53:00
7:53 PM,14.0,-6.0,41,30.02,10.0,North,11.5,-,N/A,,Unknown,360,2013-11-20 04:53:00
8:53 PM,12.9,-4.0,47,30.00,10.0,NNE,11.5,-,N/A,,Unknown,20,2013-11-20 05:53:00
9:53 PM,12.9,-2.9,49,30.00,10.0,NNE,13.8,-,N/A,,Unknown,30,2013-11-20 06:53:00
10:53 PM,12.9,-2.0,51,30.00,10.0,North,16.1,-,N/A,,Unknown,360,2013-11-20 07:53:00
11:53 PM,12.9,-2.0,51,29.99,10.0,North,9.2,-,N/A,,Unknown,360,2013-11-20 08:53:00